Time;durP1;ratioP1;P1;durP2;ratioP2;P2;SDS_P1;SDS_P2;PMS_P1;PMS_P2;Temp;Humidity;BMP_temperature;BMP_pressure;BME280_temperature;BME280_humidity;BME280_pressure;Samples;Min_cycle;Max_cycle;Signal;HPM_P1;HPM_P2
2024/01/29 00:00:46;;;;;;;9.43;3.70;;;;;;;3.44;100.00;100651.63;5031555;28;20079;-77
2024/01/29 00:03:11;;;;;;;10.15;3.33;;;;;;;3.45;100.00;100675.28;5030815;28;20067;-77
2024/01/29 00:05:36;;;;;;;9.43;3.60;;;;;;;3.45;100.00;100640.97;5049110;28;20091;-77
2024/01/29 00:08:02;;;;;;;8.13;3.60;;;;;;;3.32;100.00;100646.31;5048377;28;20272;-78
2024/01/29 00:10:28;;;;;;;12.05;3.83;;;;;;;3.46;100.00;100713.06;5048282;28;20033;-76
2024/01/29 00:12:53;;;;;;;7.15;3.10;;;;;;;3.46;100.00;100713.06;5031205;28;20028;-76
2024/01/29 00:15:19;;;;;;;11.68;2.83;;;;;;;3.51;100.00;100695.06;5031181;28;20040;-76
2024/01/29 00:17:44;;;;;;;7.32;3.22;;;;;;;3.40;100.00;100650.19;5030897;28;20166;-77
2024/01/29 00:20:10;;;;;;;12.67;4.83;;;;;;;3.34;100.00;100643.59;5022424;28;20859;-77
2024/01/29 00:22:35;;;;;;;12.43;3.22;;;;;;;3.34;100.00;100652.34;5049030;28;20657;-77
2024/01/29 00:25:01;;;;;;;10.00;3.60;;;;;;;3.31;100.00;100660.50;5030644;28;20036;-77
2024/01/29 00:27:26;;;;;;;7.28;3.97;;;;;;;3.44;100.00;100678.88;5030761;28;20845;-77
2024/01/29 00:29:52;;;;;;;8.43;4.45;;;;;;;3.47;100.00;100668.06;5014356;28;20032;-77
2024/01/29 00:32:17;;;;;;;5.38;3.10;;;;;;;3.45;100.00;100635.69;5003178;28;20040;-77
2024/01/29 00:34:43;;;;;;;12.25;3.55;;;;;;;3.52;100.00;100623.69;5030975;28;20048;-77
2024/01/29 00:37:09;;;;;;;11.63;4.25;;;;;;;3.52;100.00;100584.09;5013371;28;20049;-76
2024/01/29 00:39:34;;;;;;;10.98;3.75;;;;;;;3.58;100.00;100572.19;5027257;28;20083;-77
2024/01/29 00:41:59;;;;;;;8.15;3.42;;;;;;;3.59;100.00;100532.47;5030642;28;20802;-76
2024/01/29 00:44:25;;;;;;;5.03;3.00;;;;;;;3.73;100.00;100536.66;5030841;28;20037;-76
2024/01/29 00:46:50;;;;;;;6.33;3.10;;;;;;;3.71;100.00;100488.41;5029360;28;20374;-77
2024/01/29 00:49:15;;;;;;;17.03;5.53;;;;;;;3.77;100.00;100469.44;5030750;28;20286;-77
2024/01/29 00:51:41;;;;;;;7.07;2.83;;;;;;;3.73;100.00;100407.28;5031072;28;20280;-77
2024/01/29 00:54:06;;;;;;;11.80;3.75;;;;;;;3.74;100.00;100382.53;5030757;28;20035;-76
2024/01/29 00:56:32;;;;;;;10.05;3.05;;;;;;;3.77;100.00;100379.66;5030157;28;20034;-78
2024/01/29 00:58:57;;;;;;;6.13;2.97;;;;;;;3.95;100.00;100369.34;5030157;28;20037;-77
2024/01/29 01:01:22;;;;;;;5.73;2.97;;;;;;;3.94;100.00;100349.19;5046789;28;20337;-76
2024/01/29 01:03:48;;;;;;;12.97;3.10;;;;;;;3.77;100.00;100268.75;5030556;28;20033;-78
2024/01/29 01:06:13;;;;;;;8.07;3.30;;;;;;;3.89;100.00;100295.09;5017151;28;20390;-77
2024/01/29 01:08:38;;;;;;;9.37;3.20;;;;;;;3.86;100.00;100288.22;5013197;28;20063;-78
2024/01/29 01:11:04;;;;;;;9.65;2.85;;;;;;;3.90;100.00;100291.47;5029898;28;20291;-77
2024/01/29 01:13:29;;;;;;;11.60;3.17;;;;;;;3.94;100.00;100303.44;5016653;28;20021;-77
2024/01/29 01:15:55;;;;;;;4.97;2.87;;;;;;;3.75;100.00;100231.06;5014556;28;20040;-78
2024/01/29 01:18:20;;;;;;;7.05;4.30;;;;;;;3.92;100.00;100268.41;5017727;28;20290;-79
2024/01/29 01:20:45;;;;;;;8.65;3.70;;;;;;;3.86;100.00;100206.38;5018036;28;20082;-78
2024/01/29 01:23:11;;;;;;;4.93;2.28;;;;;;;3.86;100.00;100187.06;5034304;28;20446;-77
2024/01/29 01:25:36;;;;;;;11.90;3.45;;;;;;;3.91;100.00;100187.47;5034314;28;20029;-77
2024/01/29 01:28:02;;;;;;;9.13;3.10;;;;;;;3.91;100.00;100151.38;5017419;28;20017;-76
2024/01/29 01:30:27;;;;;;;5.97;3.00;;;;;;;4.08;100.00;100184.22;5025959;28;20656;-76
2024/01/29 01:32:52;;;;;;;5.60;3.20;;;;;;;4.11;100.00;100152.25;5014244;28;20035;-76
2024/01/29 01:35:18;;;;;;;6.97;2.90;;;;;;;4.11;100.00;100162.81;5033954;28;20280;-77
2024/01/29 01:37:43;;;;;;;10.07;3.03;;;;;;;3.96;100.00;100079.66;5029086;28;20646;-76
2024/01/29 01:40:09;;;;;;;5.05;2.85;;;;;;;4.04;100.00;100137.91;5016807;28;20407;-77
2024/01/29 01:42:37;;;;;;;;;;;;;;;3.99;100.00;100096.06;5034355;28;20986;-77
2024/01/29 01:45:03;;;;;;;6.32;2.78;;;;;;;4.00;100.00;100118.88;5028481;28;20542;-76
2024/01/29 01:47:28;;;;;;;5.40;3.38;;;;;;;4.01;100.00;100114.41;5014061;28;20034;-78
2024/01/29 01:49:54;;;;;;;6.53;3.03;;;;;;;4.08;100.00;100131.38;5030453;28;20029;-76
2024/01/29 01:52:20;;;;;;;8.47;4.07;;;;;;;4.11;100.00;100109.16;5013985;28;20116;-77
2024/01/29 01:54:46;;;;;;;7.82;2.50;;;;;;;4.11;100.00;100086.19;5033568;28;20287;-80
2024/01/29 01:57:12;;;;;;;5.72;3.42;;;;;;;4.12;100.00;100081.75;5015514;28;20043;-77
2024/01/29 01:59:38;;;;;;;;;;;;;;;4.18;100.00;100062.72;5025975;28;20078;-77
2024/01/29 02:02:04;;;;;;;5.53;2.60;;;;;;;4.18;100.00;100076.75;5021223;28;19909;-77
2024/01/29 02:04:29;;;;;;;7.30;3.22;;;;;;;4.28;100.00;100086.50;5021544;28;20113;-78
2024/01/29 02:06:55;;;;;;;5.47;2.97;;;;;;;4.18;100.00;100031.84;5029892;28;20029;-76
2024/01/29 02:09:21;;;;;;;8.50;3.90;;;;;;;4.12;100.00;100013.06;5025024;28;20283;-77
2024/01/29 02:11:47;;;;;;;6.40;2.83;;;;;;;4.21;100.00;100057.13;5016763;28;20392;-78
2024/01/29 02:14:12;;;;;;;6.37;3.43;;;;;;;4.23;100.00;100044.63;5032994;28;20105;-77
2024/01/29 02:16:37;;;;;;;8.00;2.50;;;;;;;4.14;100.00;100004.00;5024215;28;20036;-77
2024/01/29 02:19:13;;;;;;;7.43;2.45;;;;;;;4.31;100.00;100046.56;5014208;28;20627;-76
2024/01/29 02:21:38;;;;;;;5.82;4.85;;;;;;;4.33;100.00;100018.19;5032932;28;20098;-77
2024/01/29 02:24:04;;;;;;;6.75;2.97;;;;;;;4.36;100.00;100008.19;5033182;28;20476;-78
2024/01/29 02:26:29;;;;;;;6.53;3.03;;;;;;;4.16;100.00;99943.13;5032547;28;20059;-77
2024/01/29 02:28:55;;;;;;;7.97;3.07;;;;;;;4.17;100.00;99979.16;5050870;28;20032;-79
2024/01/29 02:31:20;;;;;;;7.67;2.67;;;;;;;4.27;100.00;99993.19;5016152;28;20039;-79
2024/01/29 02:33:45;;;;;;;5.77;2.30;;;;;;;4.21;100.00;99962.03;5013072;28;20283;-79
2024/01/29 02:36:11;;;;;;;3.93;2.30;;;;;;;4.28;100.00;99973.69;5030846;28;20045;-77
2024/01/29 02:38:37;;;;;;;5.63;2.90;;;;;;;4.18;100.00;99942.00;5012633;28;20021;-77
2024/01/29 02:41:02;;;;;;;4.22;2.40;;;;;;;4.20;100.00;99963.00;5025931;28;20287;-77
2024/01/29 02:43:28;;;;;;;8.30;3.20;;;;;;;4.11;100.00;99950.63;5012899;28;20558;-76
2024/01/29 02:45:53;;;;;;;4.65;2.63;;;;;;;4.11;100.00;99977.88;5004055;28;20383;-79
2024/01/29 02:48:18;;;;;;;4.00;2.35;;;;;;;3.99;100.00;99953.41;5015718;28;20119;-76
2024/01/29 02:50:44;;;;;;;5.93;2.93;;;;;;;4.01;100.00;100003.47;5020324;28;20059;-76
2024/01/29 02:53:09;;;;;;;6.57;2.60;;;;;;;4.08;100.00;100041.56;5014452;28;20268;-77
2024/01/29 02:55:34;;;;;;;3.60;2.30;;;;;;;4.07;100.00;100021.41;5013426;28;20268;-76
2024/01/29 02:58:00;;;;;;;4.43;2.57;;;;;;;4.01;100.00;99983.16;5032509;28;20033;-78
2024/01/29 03:00:25;;;;;;;6.70;3.17;;;;;;;3.91;100.00;99987.63;5026835;28;20773;-80
2024/01/29 03:02:50;;;;;;;4.33;2.13;;;;;;;3.99;100.00;100013.34;5016029;28;20024;-78
2024/01/29 03:05:16;;;;;;;5.37;2.80;;;;;;;3.89;100.00;100000.13;5032232;28;20440;-77
2024/01/29 03:07:41;;;;;;;5.97;2.65;;;;;;;3.89;100.00;100031.00;5032632;28;20280;-78
2024/01/29 03:10:07;;;;;;;4.97;2.83;;;;;;;3.78;100.00;100021.38;5024346;28;20036;-76
2024/01/29 03:12:32;;;;;;;4.80;2.47;;;;;;;3.74;100.00;100031.34;5020282;28;20279;-77
2024/01/29 03:14:58;;;;;;;4.13;2.20;;;;;;;3.70;100.00;100059.03;5036213;28;20072;-77
2024/01/29 03:17:23;;;;;;;4.07;2.53;;;;;;;3.68;100.00;100057.50;5019770;28;20291;-77
2024/01/29 03:19:48;;;;;;;5.25;2.10;;;;;;;3.65;100.00;100058.56;5019956;28;20040;-76
2024/01/29 03:22:14;;;;;;;4.90;2.73;;;;;;;3.71;100.00;100089.72;5019856;28;20479;-77
2024/01/29 03:24:39;;;;;;;5.65;3.00;;;;;;;3.63;100.00;100062.31;5019728;28;20761;-77
2024/01/29 03:27:04;;;;;;;6.83;2.53;;;;;;;3.55;100.00;100050.63;5035957;28;20043;-77
2024/01/29 03:29:30;;;;;;;5.90;2.43;;;;;;;3.49;100.00;100048.53;5019511;28;20809;-78
2024/01/29 03:31:55;;;;;;;7.05;2.58;;;;;;;3.59;100.00;100104.00;5018157;28;20389;-81
2024/01/29 03:34:20;;;;;;;7.70;2.55;;;;;;;3.51;100.00;100069.50;5035674;28;20086;-78
2024/01/29 03:36:46;;;;;;;4.73;2.10;;;;;;;3.43;100.00;100048.25;5019448;28;20383;-77
2024/01/29 03:39:12;;;;;;;6.95;3.15;;;;;;;3.46;100.00;100061.16;5018934;28;20342;-77
2024/01/29 03:41:37;;;;;;;5.80;2.95;;;;;;;3.57;100.00;100076.91;5027905;28;20033;-79
2024/01/29 03:44:03;;;;;;;3.60;2.15;;;;;;;3.58;100.00;100062.72;5019290;28;20029;-77
2024/01/29 03:46:28;;;;;;;8.15;2.45;;;;;;;3.51;100.00;100019.34;5036209;28;20491;-77
2024/01/29 03:48:53;;;;;;;6.33;2.60;;;;;;;3.58;100.00;100042.47;5016253;28;20025;-77
2024/01/29 03:51:19;;;;;;;4.90;3.03;;;;;;;3.55;100.00;100031.31;5027028;28;20278;-76
2024/01/29 03:53:44;;;;;;;5.07;2.30;;;;;;;3.51;100.00;99983.25;5053766;28;20060;-78
2024/01/29 03:56:09;;;;;;;6.55;2.47;;;;;;;3.56;100.00;99993.41;5018837;28;20039;-77
2024/01/29 03:58:35;;;;;;;4.60;2.17;;;;;;;3.51;100.00;99940.19;5019184;28;20086;-79
2024/01/29 04:01:00;;;;;;;9.93;2.57;;;;;;;3.52;100.00;99957.69;5019161;28;20291;-80
2024/01/29 04:03:25;;;;;;;3.10;2.00;;;;;;;3.48;100.00;99932.53;5015857;28;20032;-78
2024/01/29 04:05:51;;;;;;;4.75;2.20;;;;;;;3.52;100.00;99939.22;5035283;28;20290;-77
2024/01/29 04:08:16;;;;;;;6.93;2.40;;;;;;;3.36;100.00;99850.88;5018734;28;20102;-78
2024/01/29 04:10:42;;;;;;;5.50;2.20;;;;;;;3.44;100.00;99902.13;5018969;28;20287;-77
2024/01/29 04:13:07;;;;;;;5.53;2.30;;;;;;;3.47;100.00;99912.41;5018960;28;20025;-76
2024/01/29 04:15:33;;;;;;;5.45;2.05;;;;;;;3.40;100.00;99851.44;5019158;28;20060;-77
2024/01/29 04:17:58;;;;;;;4.45;2.25;;;;;;;3.43;100.00;99856.44;5019391;28;20039;-78
2024/01/29 04:20:24;;;;;;;8.30;2.63;;;;;;;3.51;100.00;99845.16;5018689;28;20064;-77
2024/01/29 04:22:49;;;;;;;4.90;2.50;;;;;;;3.49;100.00;99842.69;5018856;28;20826;-77
2024/01/29 04:25:14;;;;;;;3.80;2.27;;;;;;;3.45;100.00;99822.00;5050440;28;20082;-78
2024/01/29 04:27:41;;;;;;;3.13;2.03;;;;;;;3.49;100.00;99808.38;5016913;28;20298;-82
2024/01/29 04:30:07;;;;;;;4.32;1.73;;;;;;;3.53;100.00;99819.47;5030270;28;20417;-77
2024/01/29 04:32:32;;;;;;;3.05;1.83;;;;;;;3.53;100.00;99795.72;5026896;28;20680;-76
2024/01/29 04:34:58;;;;;;;3.30;2.17;;;;;;;3.53;100.00;99774.59;5035160;28;20083;-77
2024/01/29 04:37:24;;;;;;;3.77;2.17;;;;;;;3.44;100.00;99751.69;5018313;28;20059;-77
2024/01/29 04:39:49;;;;;;;5.60;2.15;;;;;;;3.32;100.00;99722.00;5034443;28;20041;-76
2024/01/29 04:42:15;;;;;;;3.80;1.90;;;;;;;3.32;100.00;99806.44;5018685;28;20021;-80
2024/01/29 04:44:40;;;;;;;6.25;1.92;;;;;;;3.33;100.00;99798.38;5017910;28;20522;-81
2024/01/29 04:47:06;;;;;;;7.90;2.63;;;;;;;3.31;100.00;99778.38;5018353;28;20104;-77
2024/01/29 04:49:31;;;;;;;6.88;2.92;;;;;;;3.40;99.92;99774.09;5023514;28;20439;-77
2024/01/29 04:51:57;;;;;;;5.72;2.83;;;;;;;3.42;99.01;99714.91;5034838;28;20052;-77
2024/01/29 04:54:22;;;;;;;7.20;2.50;;;;;;;3.56;98.56;99725.03;5034753;28;20399;-76
2024/01/29 04:56:47;;;;;;;5.73;2.23;;;;;;;3.44;97.87;99625.03;5018135;28;20367;-77
2024/01/29 04:59:13;;;;;;;4.18;2.45;;;;;;;3.49;97.89;99657.97;5009691;28;20037;-76
2024/01/29 05:01:38;;;;;;;5.00;2.30;;;;;;;3.44;97.79;99636.44;5034865;28;20634;-76
2024/01/29 05:04:04;;;;;;;4.63;2.13;;;;;;;3.44;97.92;99659.34;5034387;28;20033;-76
2024/01/29 05:06:30;;;;;;;10.32;3.30;;;;;;;3.55;97.49;99669.72;5034489;28;20769;-77
2024/01/29 05:08:55;;;;;;;3.80;2.00;;;;;;;3.41;97.64;99643.81;5030550;28;20407;-80
2024/01/29 05:11:21;;;;;;;4.05;2.10;;;;;;;3.36;97.14;99604.66;5024262;28;20039;-76
2024/01/29 05:13:46;;;;;;;5.15;2.38;;;;;;;3.48;97.44;99647.53;5017857;28;20067;-76
2024/01/29 05:16:12;;;;;;;4.67;2.13;;;;;;;3.45;96.98;99608.25;5033953;28;20033;-78
2024/01/29 05:18:38;;;;;;;7.30;2.35;;;;;;;3.33;97.13;99592.59;5034058;28;20286;-76
2024/01/29 05:21:04;;;;;;;8.25;2.72;;;;;;;3.29;97.27;99606.22;5028126;28;20021;-78
2024/01/29 05:23:29;;;;;;;4.22;2.10;;;;;;;3.38;97.16;99622.00;5034171;28;20835;-79
2024/01/29 05:25:55;;;;;;;4.50;1.83;;;;;;;3.39;96.81;99607.00;5016017;28;20035;-79
2024/01/29 05:28:21;;;;;;;3.55;1.90;;;;;;;3.35;96.52;99579.28;5015770;28;20583;-77
2024/01/29 05:30:47;;;;;;;3.53;2.13;;;;;;;3.37;96.63;99577.28;5017606;28;20013;-76
2024/01/29 05:33:12;;;;;;;4.10;2.42;;;;;;;3.40;96.38;99577.03;5024850;28;20033;-76
2024/01/29 05:35:37;;;;;;;2.63;1.55;;;;;;;3.32;96.16;99538.16;5014141;28;20025;-76
2024/01/29 05:38:03;;;;;;;2.53;1.67;;;;;;;3.29;96.05;99548.19;5033618;28;20591;-76
2024/01/29 05:40:28;;;;;;;4.90;2.05;;;;;;;3.26;95.89;99511.53;5014295;28;20383;-76
2024/01/29 05:42:54;;;;;;;3.17;1.73;;;;;;;3.33;95.51;99505.53;5012933;28;20078;-77
2024/01/29 05:45:20;;;;;;;3.60;2.05;;;;;;;3.41;95.21;99510.06;5018291;28;20806;-76
2024/01/29 05:47:46;;;;;;;6.40;2.25;;;;;;;3.44;94.64;99477.28;5025659;28;20040;-76
2024/01/29 05:50:11;;;;;;;3.05;1.77;;;;;;;3.37;95.03;99483.16;5029844;28;20554;-77
2024/01/29 05:52:37;;;;;;;3.20;1.63;;;;;;;3.41;94.96;99499.50;5024067;28;20418;-76
2024/01/29 05:55:02;;;;;;;5.72;1.83;;;;;;;3.46;94.79;99502.53;5010632;28;20515;-80
2024/01/29 05:57:28;;;;;;;4.47;1.88;;;;;;;3.29;94.59;99426.81;5016906;28;20041;-77
2024/01/29 05:59:54;;;;;;;3.60;2.30;;;;;;;3.40;94.55;99497.88;5031028;28;20029;-77
2024/01/29 06:02:19;;;;;;;4.78;1.85;;;;;;;3.23;94.75;99457.28;5017052;28;20535;-76
2024/01/29 06:04:44;;;;;;;4.03;1.60;;;;;;;3.26;95.01;99491.25;5017233;28;20515;-76
2024/01/29 06:07:10;;;;;;;4.85;1.83;;;;;;;3.25;94.75;99460.56;5033567;28;20037;-80
2024/01/29 06:09:35;;;;;;;3.65;1.77;;;;;;;3.45;94.56;99510.63;5016909;28;20713;-77
2024/01/29 06:12:01;;;;;;;4.57;2.55;;;;;;;3.41;94.11;99457.31;5025629;28;20029;-77
2024/01/29 06:14:26;;;;;;;4.90;2.10;;;;;;;3.35;94.03;99432.34;5029841;28;20021;-77
2024/01/29 06:16:55;;;;;;;3.88;1.95;;;;;;;3.38;93.90;99426.78;5028467;28;20021;-76
2024/01/29 06:19:20;;;;;;;5.60;2.38;;;;;;;3.39;93.76;99422.31;5031436;28;20030;-80
2024/01/29 06:21:46;;;;;;;4.13;1.80;;;;;;;3.38;93.83;99426.78;5016728;28;20045;-76
2024/01/29 06:24:11;;;;;;;3.03;1.80;;;;;;;3.41;93.76;99430.09;5016512;28;20111;-76
2024/01/29 06:26:37;;;;;;;3.42;2.15;;;;;;;3.47;93.33;99445.34;5016634;28;20119;-75
2024/01/29 06:29:03;;;;;;;5.10;2.08;;;;;;;3.29;93.18;99363.53;5025024;28;20373;-77
2024/01/29 06:31:29;;;;;;;4.10;1.50;;;;;;;3.44;93.23;99450.91;5010147;28;20034;-77
2024/01/29 06:33:54;;;;;;;5.47;2.08;;;;;;;3.41;93.20;99411.63;5028513;28;20032;-75
2024/01/29 06:36:20;;;;;;;2.42;1.75;;;;;;;3.41;93.11;99414.25;5028217;28;20029;-78
2024/01/29 06:38:46;;;;;;;5.15;2.47;;;;;;;3.35;93.02;99400.69;5016884;28;20029;-76
2024/01/29 06:41:22;;;;;;;4.32;1.95;;;;;;;3.34;93.29;99392.91;5015645;28;20178;-75
2024/01/29 06:43:48;;;;;;;;;;;;;;;3.36;93.27;99439.28;5011650;28;20043;-76
2024/01/29 06:46:13;;;;;;;11.52;2.88;;;;;;;3.27;93.11;99400.59;5014275;28;19908;-76
2024/01/29 06:48:39;;;;;;;4.13;1.73;;;;;;;3.34;93.17;99443.03;5045600;28;20082;-76
2024/01/29 06:51:04;;;;;;;3.27;2.33;;;;;;;3.27;93.50;99445.44;5006495;28;20091;-76
2024/01/29 06:53:29;;;;;;;7.13;2.38;;;;;;;3.28;93.49;99455.03;5037361;28;20029;-76
2024/01/29 06:55:59;;;;;;;3.78;1.88;;;;;;;3.30;93.27;99466.25;5035517;28;20029;-75
2024/01/29 06:58:24;;;;;;;3.80;2.53;;;;;;;3.32;93.60;99495.13;5026840;28;20523;-77
2024/01/29 07:00:50;;;;;;;6.55;2.42;;;;;;;3.34;93.56;99487.88;5028072;28;20024;-76
2024/01/29 07:03:16;;;;;;;5.05;2.35;;;;;;;3.22;93.21;99408.13;5027735;28;20052;-77
2024/01/29 07:05:41;;;;;;;5.25;2.00;;;;;;;3.26;93.49;99440.31;5020934;28;20033;-76
2024/01/29 07:08:07;;;;;;;4.50;2.15;;;;;;;3.23;93.46;99457.28;5041252;28;20043;-78
2024/01/29 07:10:32;;;;;;;4.13;2.10;;;;;;;3.21;93.17;99456.59;5009509;28;20017;-77
2024/01/29 07:12:57;;;;;;;3.75;2.10;;;;;;;3.31;93.03;99451.25;5023715;28;20090;-77
2024/01/29 07:15:22;;;;;;;4.57;2.43;;;;;;;3.30;92.76;99407.38;5040322;28;20045;-77
2024/01/29 07:17:48;;;;;;;7.33;2.23;;;;;;;3.45;92.51;99463.13;5045652;28;20279;-77
2024/01/29 07:20:13;;;;;;;3.35;1.58;;;;;;;3.44;92.43;99450.91;5027627;28;20119;-77
2024/01/29 07:22:39;;;;;;;6.70;2.20;;;;;;;3.35;92.09;99390.13;5027590;28;20036;-77
2024/01/29 07:25:08;;;;;;;5.00;1.90;;;;;;;3.34;92.53;99443.88;5027463;28;20114;-76
2024/01/29 07:27:33;;;;;;;4.20;2.15;;;;;;;3.38;92.62;99461.06;5020015;28;20374;-76
2024/01/29 07:29:59;;;;;;;6.10;2.13;;;;;;;3.37;92.50;99445.38;5011322;28;20049;-76
2024/01/29 07:32:31;;;;;;;4.13;2.03;;;;;;;3.42;92.45;99503.84;5027830;28;21000;-77
2024/01/29 07:35:03;;;;;;;6.70;2.20;;;;;;;3.39;92.56;99480.34;5027764;28;20025;-77
2024/01/29 07:37:29;;;;;;;4.47;1.77;;;;;;;3.34;92.68;99488.72;5019372;28;20037;-77
2024/01/29 07:39:55;;;;;;;3.65;2.63;;;;;;;3.37;92.88;99508.69;5045747;28;20009;-76
2024/01/29 07:42:21;;;;;;;4.97;2.30;;;;;;;3.43;92.90;99529.22;5042953;28;20037;-76
2024/01/29 07:44:46;;;;;;;4.57;2.00;;;;;;;3.38;92.78;99505.91;5021654;28;20498;-76
2024/01/29 07:47:12;;;;;;;6.05;1.88;;;;;;;3.55;93.05;99603.75;5027738;28;20075;-77
2024/01/29 07:49:37;;;;;;;2.20;1.63;;;;;;;3.69;92.63;99599.81;5027509;28;20025;-77
2024/01/29 07:52:03;;;;;;;4.50;1.93;;;;;;;3.76;92.08;99556.81;5011317;28;20029;-76
2024/01/29 07:54:28;;;;;;;4.00;1.92;;;;;;;3.89;91.81;99555.66;5027906;28;20279;-77
2024/01/29 07:56:53;;;;;;;4.07;1.80;;;;;;;4.08;91.38;99576.66;5029196;28;20052;-77
2024/01/29 07:59:19;;;;;;;3.43;1.93;;;;;;;4.09;90.78;99522.84;5031085;28;20539;-77
2024/01/29 08:01:44;;;;;;;4.28;1.92;;;;;;;4.11;90.88;99549.13;5023043;28;20321;-77
2024/01/29 08:04:11;;;;;;;5.60;1.92;;;;;;;4.02;90.80;99503.28;5022862;28;20094;-78
2024/01/29 08:06:37;;;;;;;3.75;2.15;;;;;;;4.28;89.97;99492.78;5031844;28;20506;-77
2024/01/29 08:09:04;;;;;;;4.53;1.83;;;;;;;4.36;89.87;99505.25;5031235;28;20017;-77
2024/01/29 08:11:30;;;;;;;6.63;2.05;;;;;;;4.53;89.20;99491.16;5030992;28;20025;-77
2024/01/29 08:13:56;;;;;;;3.08;1.88;;;;;;;4.73;88.28;99451.31;5031175;28;20036;-76
2024/01/29 08:16:21;;;;;;;4.32;1.63;;;;;;;4.68;87.59;99356.59;5014365;28;20037;-77
2024/01/29 08:18:47;;;;;;;3.57;1.97;;;;;;;4.53;87.09;99285.00;5031473;28;20102;-77
2024/01/29 08:21:12;;;;;;;4.57;2.00;;;;;;;5.15;87.29;99482.28;5031376;28;20538;-76
2024/01/29 08:23:37;;;;;;;2.87;1.60;;;;;;;5.28;85.97;99364.41;5008055;28;20067;-75
2024/01/29 08:26:03;;;;;;;6.47;2.30;;;;;;;5.11;85.29;99234.91;5031471;28;20766;-76
2024/01/29 08:28:28;;;;;;;4.18;2.20;;;;;;;5.69;84.95;99427.22;5049957;28;20032;-77
2024/01/29 08:30:55;;;;;;;2.97;1.80;;;;;;;5.52;83.04;99119.25;5049395;28;20037;-76
2024/01/29 08:33:20;;;;;;;6.55;2.15;;;;;;;5.65;83.41;99214.03;5049119;28;20048;-78
2024/01/29 08:35:46;;;;;;;3.30;2.17;;;;;;;5.91;82.18;99135.16;5031351;28;20041;-77
2024/01/29 08:38:11;;;;;;;4.40;2.13;;;;;;;5.54;81.50;98947.03;5031219;28;20041;-77
2024/01/29 08:40:37;;;;;;;5.17;2.00;;;;;;;5.98;81.45;99108.03;5049145;28;20215;-77
2024/01/29 08:43:02;;;;;;;;;;;;;;;5.68;80.74;98948.91;5015105;28;20412;-77
2024/01/29 08:45:28;;;;;;;2.33;1.77;;;;;;;5.67;80.72;98953.41;5030891;28;19916;-77
2024/01/29 08:47:54;;;;;;;4.32;2.00;;;;;;;5.61;80.30;98919.66;5015160;28;20025;-77
2024/01/29 08:50:19;;;;;;;3.17;1.73;;;;;;;6.06;80.54;99107.97;5029162;28;20933;-77
2024/01/29 08:52:45;;;;;;;4.27;1.60;;;;;;;6.19;80.07;99113.56;5042380;28;20238;-77
2024/01/29 08:55:11;;;;;;;4.67;2.57;;;;;;;6.20;79.13;99003.88;5030727;28;20326;-76
2024/01/29 08:57:36;;;;;;;3.65;1.90;;;;;;;6.85;78.22;99143.09;5048599;28;20045;-78
2024/01/29 09:00:04;;;;;;;2.80;1.80;;;;;;;6.80;77.98;99065.91;5042822;28;20064;-77
2024/01/29 09:02:31;;;;;;;4.90;1.65;;;;;;;7.22;76.95;99067.16;5008663;28;20028;-77
2024/01/29 09:04:57;;;;;;;3.42;2.30;;;;;;;7.22;75.79;98936.28;5001732;28;20032;-77
2024/01/29 09:07:22;;;;;;;4.28;1.77;;;;;;;6.88;75.26;98805.88;5010572;28;20480;-77
2024/01/29 09:09:47;;;;;;;3.87;1.83;;;;;;;6.97;75.39;98880.84;5044793;28;20021;-77
2024/01/29 09:12:13;;;;;;;3.63;2.30;;;;;;;7.09;74.70;98844.84;5025412;28;20492;-77
2024/01/29 09:14:38;;;;;;;4.60;1.90;;;;;;;7.73;75.18;99127.53;5043546;28;20647;-77
2024/01/29 09:17:04;;;;;;;3.70;2.37;;;;;;;8.62;74.18;99223.16;5044065;28;20471;-75
2024/01/29 09:19:29;;;;;;;3.67;2.10;;;;;;;8.82;72.30;99035.25;5028893;28;20078;-75
2024/01/29 09:21:55;;;;;;;4.07;1.85;;;;;;;9.20;71.63;99055.38;5033738;28;20036;-78
2024/01/29 09:24:20;;;;;;;6.78;1.98;;;;;;;8.79;69.92;98760.75;5011923;28;20068;-77
2024/01/29 09:26:45;;;;;;;2.87;1.90;;;;;;;8.45;69.70;98701.28;5009779;28;20038;-77
2024/01/29 09:29:11;;;;;;;4.47;1.73;;;;;;;9.09;69.13;98846.44;5026319;28;20036;-77
2024/01/29 09:31:36;;;;;;;2.55;2.17;;;;;;;8.15;68.26;98483.59;5028846;28;20033;-77
2024/01/29 09:34:03;;;;;;;3.50;1.87;;;;;;;7.97;67.98;98444.28;5047526;28;20040;-77
2024/01/29 09:36:28;;;;;;;3.85;1.50;;;;;;;9.16;68.56;98948.47;5011933;28;20377;-76
2024/01/29 09:38:54;;;;;;;6.10;1.77;;;;;;;9.31;66.94;98735.28;5029571;28;20112;-76
2024/01/29 09:41:19;;;;;;;3.23;2.10;;;;;;;9.18;66.39;98648.22;5046733;28;20287;-77
2024/01/29 09:43:47;;;;;;;5.70;2.25;;;;;;;8.95;66.31;98653.94;5019095;28;20308;-76
2024/01/29 09:46:16;;;;;;;3.42;2.20;;;;;;;9.68;66.13;98879.59;5006816;28;20132;-76
2024/01/29 09:48:42;;;;;;;3.72;2.00;;;;;;;9.90;64.32;98698.97;5047234;28;20038;-77
2024/01/29 09:51:13;;;;;;;3.38;1.60;;;;;;;9.18;63.92;98490.34;5029468;28;20041;-77
2024/01/29 09:53:39;;;;;;;6.43;1.83;;;;;;;8.22;63.39;98136.19;5009469;28;20039;-77
2024/01/29 09:56:05;;;;;;;6.60;2.33;;;;;;;8.71;63.53;98372.50;5024570;28;20210;-77
2024/01/29 09:58:30;;;;;;;3.88;2.10;;;;;;;9.03;63.81;98549.91;5028914;28;20115;-77
2024/01/29 10:00:57;;;;;;;2.70;1.92;;;;;;;9.38;63.80;98721.97;5046757;28;20041;-76
2024/01/29 10:03:29;;;;;;;2.90;2.33;;;;;;;9.61;61.83;98413.34;5046961;28;20098;-76
2024/01/29 10:05:56;;;;;;;5.05;2.10;;;;;;;9.49;62.59;98534.91;5029040;28;20036;-77
2024/01/29 10:08:23;;;;;;;4.10;1.75;;;;;;;10.55;62.97;99004.00;5028786;28;20043;-77
2024/01/29 10:10:49;;;;;;;4.78;2.50;;;;;;;10.64;60.69;98617.69;5028670;28;20400;-76
2024/01/29 10:13:14;;;;;;;4.03;1.90;;;;;;;10.84;59.68;98475.25;5028696;28;20036;-77
2024/01/29 10:15:42;;;;;;;3.47;1.67;;;;;;;10.87;59.39;98491.66;5046369;28;20115;-77
2024/01/29 10:18:11;;;;;;;5.03;1.92;;;;;;;10.75;60.01;98606.31;5028849;28;20036;-77
2024/01/29 10:20:37;;;;;;;3.38;1.70;;;;;;;10.42;58.71;98302.44;5020753;28;20033;-76
2024/01/29 10:23:02;;;;;;;5.73;2.60;;;;;;;9.96;58.62;98153.56;5028576;28;20407;-76
2024/01/29 10:25:29;;;;;;;3.55;1.80;;;;;;;9.33;59.11;98107.47;5046143;28;20286;-76
2024/01/29 10:28:26;;;;;;;5.05;2.20;;;;;;;10.02;59.49;98468.06;5008588;28;20129;-78
2024/01/29 10:30:55;;;;;;;6.57;2.70;;;;;;;11.18;58.45;98692.91;5023854;28;20063;-77
2024/01/29 10:33:24;;;;;;;4.85;2.05;;;;;;;10.42;58.60;98505.16;5046343;28;20061;-77
2024/01/29 10:35:49;;;;;;;4.78;2.05;;;;;;;10.50;58.71;98517.41;5045982;28;20059;-77
2024/01/29 10:38:20;;;;;;;7.82;2.65;;;;;;;9.32;58.20;97987.84;5028179;28;20037;-78
2024/01/29 10:40:46;;;;;;;4.13;2.55;;;;;;;9.77;59.43;98459.19;5046285;28;20460;-77
2024/01/29 10:43:19;;;;;;;3.33;1.80;;;;;;;9.96;59.05;98503.56;5028316;28;20033;-77
2024/01/29 10:45:53;;;;;;;6.68;2.72;;;;;;;10.21;60.03;98820.97;5012092;28;20503;-78
2024/01/29 10:48:22;;;;;;;3.67;1.88;;;;;;;9.99;59.53;98604.41;5022389;28;20037;-77
2024/01/29 10:50:49;;;;;;;4.25;3.08;;;;;;;10.35;59.48;98776.47;5028101;28;20012;-77
2024/01/29 10:53:16;;;;;;;4.10;2.40;;;;;;;10.18;59.64;98700.56;5046253;28;20024;-77
2024/01/29 10:55:43;;;;;;;4.90;2.28;;;;;;;11.26;58.97;98958.94;5027876;28;20085;-77
2024/01/29 10:58:12;;;;;;;5.97;2.70;;;;;;;10.77;58.98;98775.09;5008190;28;20057;-77
2024/01/29 11:00:39;;;;;;;2.63;1.88;;;;;;;11.51;59.00;99047.25;5003455;28;20103;-77
2024/01/29 11:03:06;;;;;;;4.95;2.13;;;;;;;10.62;58.24;98545.03;5045856;28;20854;-78
2024/01/29 11:05:32;;;;;;;9.52;3.22;;;;;;;11.55;58.88;99048.47;5045541;28;20098;-76
2024/01/29 11:08:01;;;;;;;4.68;1.98;;;;;;;10.98;57.91;98608.41;5018165;28;20467;-77
2024/01/29 11:10:30;;;;;;;4.65;2.40;;;;;;;11.30;57.95;98763.28;5014853;28;20120;-77
2024/01/29 11:12:57;;;;;;;3.78;2.22;;;;;;;10.59;58.23;98524.13;5027953;28;20048;-77
2024/01/29 11:15:24;;;;;;;3.33;2.20;;;;;;;10.65;58.96;98702.06;5010820;28;20041;-76
2024/01/29 11:17:49;;;;;;;6.40;2.33;;;;;;;9.85;59.69;98509.56;5010353;28;20064;-75
2024/01/29 11:20:16;;;;;;;4.93;2.13;;;;;;;10.01;59.99;98711.66;5009115;28;20072;-75
2024/01/29 11:22:50;;;;;;;2.80;2.10;;;;;;;10.93;60.01;99083.50;5028762;28;20025;-77
2024/01/29 11:25:16;;;;;;;3.70;2.28;;;;;;;11.19;59.73;99130.75;4997162;28;20254;-76
2024/01/29 11:27:43;;;;;;;4.75;2.50;;;;;;;11.33;59.25;99046.06;5004581;28;20099;-76
2024/01/29 11:30:25;;;;;;;3.08;2.08;;;;;;;11.71;59.63;99220.97;5006042;28;20157;-78